Time;durP1;ratioP1;P1;durP2;ratioP2;P2;SDS_P1;SDS_P2;PMS_P1;PMS_P2;Temp;Humidity;BMP_temperature;BMP_pressure;BME280_temperature;BME280_humidity;BME280_pressure;Samples;Min_cycle;Max_cycle;Signal;HPM_P1;HPM_P2
2024/01/30 00:00:21;;;;;;;52.95;17.80;;;;;;;;;;2065985;28;20015;-77
2024/01/30 00:01:40;;;;;;;46.95;17.48;;;;;;;;;;2061875;28;20034;-77
2024/01/30 00:02:58;;;;;;;51.72;16.80;;;;;;;;;;2065742;28;20500;-78
2024/01/30 00:04:17;;;;;;;47.28;16.67;;;;;;;;;;2062384;28;20065;-77
2024/01/30 00:05:36;;;;;;;55.03;18.00;;;;;;;;;;2066707;28;20030;-77
2024/01/30 00:06:55;;;;;;;51.63;17.08;;;;;;;;;;2066465;28;20047;-78
2024/01/30 00:08:14;;;;;;;46.75;17.50;;;;;;;;;;2057579;28;20054;-76
2024/01/30 00:09:33;;;;;;;50.35;18.35;;;;;;;;;;2061797;28;20082;-78
2024/01/30 00:10:52;;;;;;;45.42;16.90;;;;;;;;;;2061189;28;20057;-80
2024/01/30 00:12:11;;;;;;;54.13;17.23;;;;;;;;;;2060863;28;20132;-76
2024/01/30 00:13:30;;;;;;;57.42;17.85;;;;;;;;;;2063665;28;20025;-76
2024/01/30 00:14:50;;;;;;;64.75;18.30;;;;;;;;;;2064123;28;20026;-77
2024/01/30 00:16:19;;;;;;;54.42;17.58;;;;;;;;;;2066375;28;20030;-79
2024/01/30 00:17:38;;;;;;;58.95;17.98;;;;;;;;;;2066969;28;20050;-79
2024/01/30 00:18:57;;;;;;;53.67;18.00;;;;;;;;;;2065747;28;20030;-79
2024/01/30 00:20:16;;;;;;;53.55;18.17;;;;;;;;;;2067330;28;20026;-77
2024/01/30 00:21:35;;;;;;;56.65;19.00;;;;;;;;;;2065867;28;20397;-78
2024/01/30 00:22:54;;;;;;;55.75;18.20;;;;;;;;;;2065602;28;20039;-79
2024/01/30 00:24:13;;;;;;;60.17;18.33;;;;;;;;;;2064408;28;20492;-78
2024/01/30 00:25:33;;;;;;;42.25;18.15;;;;;;;;;;2056409;28;20521;-78
2024/01/30 00:26:52;;;;;;;51.13;18.27;;;;;;;;;;2061749;28;20035;-78
2024/01/30 00:28:11;;;;;;;50.35;17.40;;;;;;;;;;2064485;28;20031;-77
2024/01/30 00:29:33;;;;;;;55.92;17.50;;;;;;;;;;2063395;28;20029;-78
2024/01/30 00:30:52;;;;;;;59.75;18.42;;;;;;;;;;2059098;28;20117;-76
2024/01/30 00:32:10;;;;;;;52.45;19.05;;;;;;;;;;2063766;28;20046;-78
2024/01/30 00:33:29;;;;;;;48.55;16.48;;;;;;;;;;2054663;28;20034;-79
2024/01/30 00:34:48;;;;;;;57.75;19.45;;;;;;;;;;2062162;28;20405;-79
2024/01/30 00:36:08;;;;;;;59.58;18.75;;;;;;;;;;2068272;28;20026;-79
2024/01/30 00:37:27;;;;;;;58.22;17.02;;;;;;;;;;2068203;28;20369;-79
2024/01/30 00:38:46;;;;;;;60.17;18.48;;;;;;;;;;2064934;28;20031;-78
2024/01/30 00:40:05;;;;;;;48.97;17.80;;;;;;;;;;2063473;28;20030;-79
2024/01/30 00:41:25;;;;;;;44.92;16.55;;;;;;;;;;2062396;28;20030;-76
2024/01/30 00:42:44;;;;;;;46.63;17.23;;;;;;;;;;2065765;28;20030;-76
2024/01/30 00:44:03;;;;;;;52.33;17.92;;;;;;;;;;2064769;28;20030;-79
2024/01/30 00:45:22;;;;;;;47.90;15.90;;;;;;;;;;2067963;28;20485;-79
2024/01/30 00:46:41;;;;;;;57.95;16.92;;;;;;;;;;2061413;28;20038;-78
2024/01/30 00:48:00;;;;;;;52.03;17.63;;;;;;;;;;2070475;28;20049;-80
2024/01/30 00:49:19;;;;;;;50.30;17.27;;;;;;;;;;2073659;28;20599;-79
2024/01/30 00:50:37;;;;;;;54.55;18.27;;;;;;;;;;2066676;28;20413;-78
2024/01/30 00:51:56;;;;;;;56.35;18.45;;;;;;;;;;2064704;28;20034;-78
2024/01/30 00:53:15;;;;;;;58.47;19.50;;;;;;;;;;2070337;28;20026;-79
2024/01/30 00:54:34;;;;;;;53.92;18.17;;;;;;;;;;2073788;28;21705;-79
2024/01/30 00:55:53;;;;;;;53.58;18.88;;;;;;;;;;2075646;28;20021;-78
2024/01/30 00:57:12;;;;;;;55.45;19.90;;;;;;;;;;2073009;28;20026;-77
2024/01/30 00:58:31;;;;;;;57.83;19.17;;;;;;;;;;2071699;28;20411;-76
2024/01/30 00:59:50;;;;;;;57.83;19.38;;;;;;;;;;2062124;28;20022;-79
2024/01/30 01:01:09;;;;;;;53.10;20.30;;;;;;;;;;2069977;28;20638;-77
2024/01/30 01:02:28;;;;;;;59.45;19.30;;;;;;;;;;2065837;28;20038;-77
2024/01/30 01:03:48;;;;;;;54.97;18.40;;;;;;;;;;2070274;28;20029;-76
2024/01/30 01:05:07;;;;;;;55.10;17.65;;;;;;;;;;2073127;28;20034;-78
2024/01/30 01:06:26;;;;;;;49.92;19.98;;;;;;;;;;2073533;28;20029;-78
2024/01/30 01:07:47;;;;;;;46.30;16.90;;;;;;;;;;2071441;28;20038;-77
2024/01/30 01:09:06;;;;;;;62.80;19.20;;;;;;;;;;2071908;28;20068;-75
2024/01/30 01:10:25;;;;;;;63.10;19.50;;;;;;;;;;2074379;28;20033;-77
2024/01/30 01:11:44;;;;;;;51.40;19.10;;;;;;;;;;2074405;28;20033;-77
2024/01/30 01:13:03;;;;;;;57.80;18.77;;;;;;;;;;2074424;28;20124;-77
2024/01/30 01:14:22;;;;;;;65.13;19.40;;;;;;;;;;2065234;28;20014;-78
2024/01/30 01:15:41;;;;;;;57.10;19.17;;;;;;;;;;2068556;28;20867;-78
2024/01/30 01:17:00;;;;;;;53.58;18.80;;;;;;;;;;2072894;28;20038;-78
2024/01/30 01:18:20;;;;;;;59.22;18.00;;;;;;;;;;2070924;28;20038;-76
2024/01/30 01:19:39;;;;;;;61.80;20.05;;;;;;;;;;2066534;28;20022;-78
2024/01/30 01:21:00;;;;;;;61.15;19.85;;;;;;;;;;2065888;28;20462;-79
2024/01/30 01:22:19;;;;;;;64.38;19.92;;;;;;;;;;2073092;28;20452;-77
2024/01/30 01:23:38;;;;;;;51.65;19.52;;;;;;;;;;2064536;28;20881;-77
2024/01/30 01:24:57;;;;;;;59.08;18.48;;;;;;;;;;2068110;28;20060;-77
2024/01/30 01:26:16;;;;;;;61.40;18.50;;;;;;;;;;2073991;28;21434;-78
2024/01/30 01:27:40;;;;;;;57.30;18.98;;;;;;;;;;2073990;28;20030;-78
2024/01/30 01:28:59;;;;;;;55.45;18.98;;;;;;;;;;2073232;28;20042;-78
2024/01/30 01:30:21;;;;;;;76.15;18.77;;;;;;;;;;2074927;28;20392;-78
2024/01/30 01:31:44;;;;;;;69.38;20.33;;;;;;;;;;2072632;28;20029;-77
2024/01/30 01:33:03;;;;;;;65.22;21.23;;;;;;;;;;2062195;28;20030;-78
2024/01/30 01:34:23;;;;;;;59.55;19.90;;;;;;;;;;2069219;28;20450;-78
2024/01/30 01:35:42;;;;;;;64.35;20.35;;;;;;;;;;2073095;28;20489;-78
2024/01/30 01:37:01;;;;;;;54.40;19.17;;;;;;;;;;2066186;28;20405;-78
2024/01/30 01:38:20;;;;;;;63.15;20.27;;;;;;;;;;2071797;28;20021;-78
2024/01/30 01:39:39;;;;;;;65.03;19.77;;;;;;;;;;2069717;28;20022;-79
2024/01/30 01:40:58;;;;;;;58.90;20.63;;;;;;;;;;2071485;28;20294;-79
2024/01/30 01:42:17;;;;;;;65.22;19.98;;;;;;;;;;2072940;28;20331;-79
2024/01/30 01:43:37;;;;;;;82.05;21.52;;;;;;;;;;2071169;28;20022;-79
2024/01/30 01:44:56;;;;;;;61.03;20.00;;;;;;;;;;2072471;28;20034;-77
2024/01/30 01:46:15;;;;;;;66.82;18.85;;;;;;;;;;2074024;28;20033;-77
2024/01/30 01:47:34;;;;;;;52.65;18.65;;;;;;;;;;2071506;28;20403;-78
2024/01/30 01:48:55;;;;;;;59.55;19.27;;;;;;;;;;2074332;28;20033;-75
2024/01/30 01:50:15;;;;;;;66.32;19.83;;;;;;;;;;2071715;28;20039;-74
2024/01/30 01:51:35;;;;;;;74.00;20.70;;;;;;;;;;2072709;28;20113;-74
2024/01/30 01:52:54;;;;;;;67.93;21.30;;;;;;;;;;2070186;28;20026;-75
2024/01/30 01:54:14;;;;;;;58.00;19.30;;;;;;;;;;2070946;28;21017;-75
2024/01/30 01:55:33;;;;;;;61.20;19.90;;;;;;;;;;2074562;28;20104;-74
2024/01/30 01:56:53;;;;;;;77.22;21.23;;;;;;;;;;2065653;28;20489;-74
2024/01/30 01:58:12;;;;;;;59.67;20.70;;;;;;;;;;2062040;28;20029;-74
2024/01/30 01:59:32;;;;;;;62.60;20.40;;;;;;;;;;2070384;28;20026;-74
2024/01/30 02:00:51;;;;;;;56.55;20.00;;;;;;;;;;2070350;28;20034;-73
2024/01/30 02:02:11;;;;;;;59.85;18.52;;;;;;;;;;2065298;28;20440;-74
2024/01/30 02:03:30;;;;;;;57.17;19.52;;;;;;;;;;2071678;28;20030;-73
2024/01/30 02:04:50;;;;;;;66.47;19.70;;;;;;;;;;2072745;28;20065;-74
2024/01/30 02:06:09;;;;;;;69.45;20.25;;;;;;;;;;2069410;28;20037;-74
2024/01/30 02:07:28;;;;;;;59.85;19.63;;;;;;;;;;2071398;28;20116;-73
2024/01/30 02:08:47;;;;;;;59.78;19.15;;;;;;;;;;2074679;28;20038;-73
2024/01/30 02:10:07;;;;;;;64.00;20.00;;;;;;;;;;2070603;28;20018;-75
2024/01/30 02:11:28;;;;;;;97.22;21.60;;;;;;;;;;2072616;28;20026;-75
2024/01/30 02:12:48;;;;;;;76.55;20.98;;;;;;;;;;2074088;28;20485;-74
2024/01/30 02:14:08;;;;;;;103.07;21.30;;;;;;;;;;2063652;28;20109;-74
2024/01/30 02:15:26;;;;;;;124.07;21.15;;;;;;;;;;2068712;28;20140;-75
2024/01/30 02:16:45;;;;;;;194.27;23.15;;;;;;;;;;2070681;28;20038;-75
2024/01/30 02:18:04;;;;;;;130.05;21.35;;;;;;;;;;2072393;28;20093;-74
2024/01/30 02:19:23;;;;;;;274.92;29.35;;;;;;;;;;2071204;28;20392;-75
2024/01/30 02:20:43;;;;;;;191.05;25.98;;;;;;;;;;2065490;28;20424;-74
2024/01/30 02:22:02;;;;;;;91.13;21.25;;;;;;;;;;2059994;28;20022;-75
2024/01/30 02:23:23;;;;;;;115.07;22.13;;;;;;;;;;2072786;28;20512;-74
2024/01/30 02:24:43;;;;;;;115.78;22.95;;;;;;;;;;2063918;28;20030;-74
2024/01/30 02:26:02;;;;;;;159.25;22.48;;;;;;;;;;2068633;28;20385;-74
2024/01/30 02:27:21;;;;;;;94.25;22.73;;;;;;;;;;2058406;28;20026;-74
2024/01/30 02:28:39;;;;;;;255.75;28.65;;;;;;;;;;2066747;28;20846;-74
2024/01/30 02:29:59;;;;;;;350.17;33.75;;;;;;;;;;2065967;28;20034;-75
2024/01/30 02:31:18;;;;;;;266.45;29.38;;;;;;;;;;2070149;28;20022;-73
2024/01/30 02:32:37;;;;;;;96.43;21.05;;;;;;;;;;2068839;28;20116;-74
2024/01/30 02:33:56;;;;;;;134.07;21.58;;;;;;;;;;2072492;28;20026;-73
2024/01/30 02:35:15;;;;;;;202.73;25.35;;;;;;;;;;2061256;28;20034;-75
2024/01/30 02:36:34;;;;;;;222.35;26.05;;;;;;;;;;2061934;28;20655;-72
2024/01/30 02:37:53;;;;;;;243.32;28.38;;;;;;;;;;2069588;28;20034;-74
2024/01/30 02:39:12;;;;;;;184.63;23.15;;;;;;;;;;2064230;28;20019;-74
2024/01/30 02:40:31;;;;;;;118.65;21.75;;;;;;;;;;2066745;28;20049;-74
2024/01/30 02:41:50;;;;;;;158.02;22.40;;;;;;;;;;2066349;28;20513;-74
2024/01/30 02:43:09;;;;;;;167.23;24.45;;;;;;;;;;2068057;28;20025;-76
2024/01/30 02:44:28;;;;;;;168.70;23.10;;;;;;;;;;2072130;28;20462;-75
2024/01/30 02:45:47;;;;;;;177.18;22.80;;;;;;;;;;2060585;28;20050;-74
2024/01/30 02:47:06;;;;;;;122.47;22.10;;;;;;;;;;2067479;28;20030;-75
2024/01/30 02:48:25;;;;;;;139.73;19.63;;;;;;;;;;2074293;28;20041;-74
2024/01/30 02:49:44;;;;;;;277.52;27.55;;;;;;;;;;2075978;28;20041;-74
2024/01/30 02:51:03;;;;;;;116.68;20.52;;;;;;;;;;2073186;28;20034;-73
2024/01/30 02:52:22;;;;;;;152.25;20.30;;;;;;;;;;2073826;28;20042;-74
2024/01/30 02:53:42;;;;;;;153.77;22.52;;;;;;;;;;2072180;28;20431;-73
2024/01/30 02:55:01;;;;;;;98.55;17.45;;;;;;;;;;2063079;28;20180;-75
2024/01/30 02:56:21;;;;;;;259.02;26.83;;;;;;;;;;2071858;28;20030;-73
2024/01/30 02:57:40;;;;;;;200.75;22.23;;;;;;;;;;2066826;28;20116;-74
2024/01/30 02:58:59;;;;;;;170.23;21.65;;;;;;;;;;2061473;28;20038;-73
2024/01/30 03:00:19;;;;;;;278.85;28.67;;;;;;;;;;2070029;28;20050;-75
2024/01/30 03:01:44;;;;;;;198.70;24.73;;;;;;;;;;2066376;28;20022;-75
2024/01/30 03:03:03;;;;;;;190.13;23.35;;;;;;;;;;2070747;28;20113;-74
2024/01/30 03:04:22;;;;;;;207.80;22.92;;;;;;;;;;2071672;28;20041;-74
2024/01/30 03:05:41;;;;;;;210.75;24.05;;;;;;;;;;2068529;28;20033;-76
2024/01/30 03:07:00;;;;;;;283.60;30.40;;;;;;;;;;2069006;28;20038;-74
2024/01/30 03:08:19;;;;;;;212.73;25.85;;;;;;;;;;2069443;28;20042;-74
2024/01/30 03:09:41;;;;;;;230.13;26.20;;;;;;;;;;2071730;28;20189;-74
2024/01/30 03:11:00;;;;;;;213.57;24.45;;;;;;;;;;2059740;28;20030;-74
2024/01/30 03:12:18;;;;;;;145.38;21.15;;;;;;;;;;2066657;28;20042;-75
2024/01/30 03:13:37;;;;;;;407.60;35.67;;;;;;;;;;2072319;28;20393;-74
2024/01/30 03:14:56;;;;;;;260.83;27.48;;;;;;;;;;2069024;28;20413;-75
2024/01/30 03:16:15;;;;;;;295.52;31.10;;;;;;;;;;2068285;28;20100;-73
2024/01/30 03:17:36;;;;;;;354.25;33.97;;;;;;;;;;2070280;28;20065;-75
2024/01/30 03:18:55;;;;;;;159.13;22.02;;;;;;;;;;2068179;28;20095;-75
2024/01/30 03:20:14;;;;;;;163.95;20.80;;;;;;;;;;2064748;28;20037;-74
2024/01/30 03:21:33;;;;;;;205.00;24.33;;;;;;;;;;2067088;28;20038;-75
2024/01/30 03:22:53;;;;;;;147.70;21.80;;;;;;;;;;2074454;28;20034;-73
2024/01/30 03:24:12;;;;;;;205.23;22.65;;;;;;;;;;2074152;28;20500;-73
2024/01/30 03:25:31;;;;;;;143.70;20.02;;;;;;;;;;2073464;28;20033;-73
2024/01/30 03:26:50;;;;;;;283.90;28.70;;;;;;;;;;2060420;28;20034;-74
2024/01/30 03:28:09;;;;;;;147.00;20.73;;;;;;;;;;2062993;28;20069;-73
2024/01/30 03:29:29;;;;;;;289.48;26.30;;;;;;;;;;2072420;28;20034;-75
2024/01/30 03:30:48;;;;;;;258.48;26.58;;;;;;;;;;2075161;28;20030;-74
2024/01/30 03:32:06;;;;;;;187.75;22.17;;;;;;;;;;2074599;28;20038;-72
2024/01/30 03:33:27;;;;;;;151.35;20.25;;;;;;;;;;2070971;28;20030;-73
2024/01/30 03:34:46;;;;;;;323.23;26.30;;;;;;;;;;2073277;28;20427;-75
2024/01/30 03:36:05;;;;;;;263.77;25.65;;;;;;;;;;2074634;28;20498;-73
2024/01/30 03:37:24;;;;;;;401.92;32.42;;;;;;;;;;2075818;28;20551;-75
2024/01/30 03:38:43;;;;;;;154.52;21.38;;;;;;;;;;2075186;28;20392;-74
2024/01/30 03:40:04;;;;;;;95.35;17.33;;;;;;;;;;2067112;28;20030;-74
2024/01/30 03:41:23;;;;;;;87.40;18.02;;;;;;;;;;2071271;28;20022;-74
2024/01/30 03:42:42;;;;;;;462.77;34.63;;;;;;;;;;2064679;28;20121;-75
2024/01/30 03:44:01;;;;;;;226.95;24.23;;;;;;;;;;2070222;28;20034;-75
2024/01/30 03:45:20;;;;;;;472.73;35.95;;;;;;;;;;2073676;28;20057;-75
2024/01/30 03:46:39;;;;;;;176.13;22.35;;;;;;;;;;2073159;28;20042;-75
2024/01/30 03:47:58;;;;;;;210.88;23.60;;;;;;;;;;2075300;28;20042;-74
2024/01/30 03:49:17;;;;;;;192.50;20.00;;;;;;;;;;2066019;28;20500;-74
2024/01/30 03:50:36;;;;;;;195.88;22.75;;;;;;;;;;2053382;28;20039;-75
2024/01/30 03:51:55;;;;;;;168.95;21.70;;;;;;;;;;2056684;28;20030;-74
2024/01/30 03:53:14;;;;;;;242.50;23.33;;;;;;;;;;2070554;28;20045;-73
2024/01/30 03:54:33;;;;;;;358.33;32.55;;;;;;;;;;2073339;28;20029;-74
2024/01/30 03:55:52;;;;;;;434.35;34.70;;;;;;;;;;2065090;28;20042;-74
2024/01/30 03:57:11;;;;;;;171.18;21.15;;;;;;;;;;2071388;28;20389;-74
2024/01/30 03:58:30;;;;;;;205.85;22.67;;;;;;;;;;2062003;28;20026;-74
2024/01/30 03:59:49;;;;;;;329.55;28.05;;;;;;;;;;2058116;28;20030;-74
2024/01/30 04:01:07;;;;;;;228.25;22.77;;;;;;;;;;2066624;28;20061;-75
2024/01/30 04:02:26;;;;;;;239.65;23.55;;;;;;;;;;2070304;28;20038;-72
2024/01/30 04:03:45;;;;;;;206.68;22.27;;;;;;;;;;2073198;28;20034;-75
2024/01/30 04:05:04;;;;;;;326.95;27.92;;;;;;;;;;2071745;28;20065;-74
2024/01/30 04:06:24;;;;;;;263.73;23.52;;;;;;;;;;2071332;28;20030;-74
2024/01/30 04:07:44;;;;;;;108.75;16.85;;;;;;;;;;2071960;28;20030;-73
2024/01/30 04:09:03;;;;;;;121.35;17.45;;;;;;;;;;2069761;28;20022;-73
2024/01/30 04:10:23;;;;;;;81.03;16.95;;;;;;;;;;2071621;28;20030;-74
2024/01/30 04:11:42;;;;;;;173.02;21.05;;;;;;;;;;2075441;28;20492;-74
2024/01/30 04:13:00;;;;;;;265.85;24.48;;;;;;;;;;2062490;28;20101;-74
2024/01/30 04:14:19;;;;;;;352.27;29.80;;;;;;;;;;2067962;28;20108;-74
2024/01/30 04:15:38;;;;;;;306.55;29.05;;;;;;;;;;2074924;28;20026;-74
2024/01/30 04:16:58;;;;;;;214.35;22.33;;;;;;;;;;2065370;28;20027;-74
2024/01/30 04:18:17;;;;;;;223.05;22.13;;;;;;;;;;2071130;28;20030;-75
2024/01/30 04:19:39;;;;;;;104.35;18.05;;;;;;;;;;2073774;28;20029;-74
2024/01/30 04:20:58;;;;;;;346.75;30.67;;;;;;;;;;2071340;28;20038;-74
2024/01/30 04:22:17;;;;;;;85.22;17.95;;;;;;;;;;2072966;28;20022;-75
2024/01/30 04:23:36;;;;;;;82.25;16.70;;;;;;;;;;2074135;28;20065;-75
2024/01/30 04:24:55;;;;;;;82.78;16.27;;;;;;;;;;2075546;28;20062;-74
2024/01/30 04:26:14;;;;;;;85.03;16.75;;;;;;;;;;2072460;28;20022;-73
2024/01/30 04:27:33;;;;;;;90.07;17.77;;;;;;;;;;2074249;28;20026;-74
2024/01/30 04:28:52;;;;;;;87.75;16.67;;;;;;;;;;2072393;28;20033;-74
2024/01/30 04:30:11;;;;;;;88.82;17.17;;;;;;;;;;2074134;28;20428;-73
2024/01/30 04:31:30;;;;;;;86.03;15.07;;;;;;;;;;2075057;28;20026;-73
2024/01/30 04:32:49;;;;;;;112.43;18.00;;;;;;;;;;2063093;28;20035;-74
2024/01/30 04:34:08;;;;;;;73.97;16.13;;;;;;;;;;2072671;28;20397;-74
2024/01/30 04:35:27;;;;;;;82.20;16.58;;;;;;;;;;2075172;28;20037;-73
2024/01/30 04:36:46;;;;;;;156.85;19.73;;;;;;;;;;2073161;28;20104;-73
2024/01/30 04:38:05;;;;;;;151.80;19.00;;;;;;;;;;2072888;28;20030;-73
2024/01/30 04:39:24;;;;;;;57.13;14.30;;;;;;;;;;2063442;28;20026;-73
2024/01/30 04:40:43;;;;;;;56.20;15.15;;;;;;;;;;2066911;28;20029;-73
2024/01/30 04:42:03;;;;;;;54.50;15.65;;;;;;;;;;2077142;28;20026;-73
2024/01/30 04:43:21;;;;;;;50.33;15.15;;;;;;;;;;2072165;28;20037;-75
2024/01/30 04:44:40;;;;;;;69.30;15.48;;;;;;;;;;2071277;28;20059;-74
2024/01/30 04:45:59;;;;;;;44.28;14.65;;;;;;;;;;2061992;28;20042;-74
2024/01/30 04:47:18;;;;;;;73.50;15.65;;;;;;;;;;2070852;28;20026;-74
2024/01/30 04:48:37;;;;;;;71.53;14.70;;;;;;;;;;2065753;28;20512;-73
2024/01/30 04:49:56;;;;;;;51.92;13.90;;;;;;;;;;2069961;28;20065;-73
2024/01/30 04:51:15;;;;;;;71.00;15.50;;;;;;;;;;2075554;28;20053;-74
2024/01/30 04:52:34;;;;;;;55.80;15.20;;;;;;;;;;2064770;28;20073;-75
2024/01/30 04:53:53;;;;;;;92.40;15.73;;;;;;;;;;2060625;28;20026;-74
2024/01/30 04:55:11;;;;;;;102.55;15.50;;;;;;;;;;2058381;28;20565;-74
2024/01/30 04:56:31;;;;;;;54.45;14.70;;;;;;;;;;2064732;28;20164;-74
2024/01/30 04:57:50;;;;;;;55.30;14.85;;;;;;;;;;2056809;28;20113;-75
2024/01/30 04:59:09;;;;;;;35.80;13.50;;;;;;;;;;2064626;28;20266;-74
2024/01/30 05:00:28;;;;;;;38.83;13.95;;;;;;;;;;2067340;28;20022;-75
2024/01/30 05:01:47;;;;;;;54.97;14.43;;;;;;;;;;2067022;28;20033;-74
2024/01/30 05:03:06;;;;;;;51.42;14.70;;;;;;;;;;2068296;28;20035;-75
2024/01/30 05:04:25;;;;;;;40.28;14.43;;;;;;;;;;2059316;28;20038;-74
2024/01/30 05:05:44;;;;;;;37.88;13.45;;;;;;;;;;2068559;28;20117;-74
2024/01/30 05:07:03;;;;;;;45.95;15.05;;;;;;;;;;2075845;28;20061;-75
2024/01/30 05:08:22;;;;;;;44.60;13.52;;;;;;;;;;2074077;28;20025;-74
2024/01/30 05:09:41;;;;;;;44.63;13.80;;;;;;;;;;2074049;28;20034;-74
2024/01/30 05:11:00;;;;;;;67.80;14.27;;;;;;;;;;2062732;28;20038;-73
2024/01/30 05:12:19;;;;;;;51.65;14.10;;;;;;;;;;2068990;28;20140;-75
2024/01/30 05:13:38;;;;;;;38.55;14.45;;;;;;;;;;2073043;28;20030;-75
2024/01/30 05:14:57;;;;;;;47.67;13.10;;;;;;;;;;2073578;28;20065;-72
2024/01/30 05:16:16;;;;;;;36.15;12.93;;;;;;;;;;2064011;28;20034;-76
2024/01/30 05:17:34;;;;;;;42.95;13.43;;;;;;;;;;2061235;28;20031;-76
2024/01/30 05:18:53;;;;;;;45.00;12.90;;;;;;;;;;2068858;28;20849;-76
2024/01/30 05:20:12;;;;;;;57.45;13.70;;;;;;;;;;2073708;28;20038;-75
2024/01/30 05:21:31;;;;;;;59.08;13.65;;;;;;;;;;2062409;28;20453;-75
2024/01/30 05:22:50;;;;;;;60.78;13.88;;;;;;;;;;2062063;28;20062;-76
2024/01/30 05:24:10;;;;;;;58.72;13.43;;;;;;;;;;2064317;28;20109;-77
2024/01/30 05:25:29;;;;;;;43.35;13.43;;;;;;;;;;2071658;28;20025;-77
2024/01/30 05:26:48;;;;;;;54.25;12.40;;;;;;;;;;2069373;28;20029;-76
2024/01/30 05:28:07;;;;;;;40.85;12.70;;;;;;;;;;2072755;28;20061;-75
2024/01/30 05:29:26;;;;;;;47.17;12.15;;;;;;;;;;2071299;28;20029;-77
2024/01/30 05:30:45;;;;;;;61.13;12.18;;;;;;;;;;2070183;28;20154;-75
2024/01/30 05:32:05;;;;;;;35.70;11.75;;;;;;;;;;2073094;28;20388;-75
2024/01/30 05:33:24;;;;;;;46.35;12.15;;;;;;;;;;2064948;28;20034;-76
2024/01/30 05:34:45;;;;;;;51.05;11.93;;;;;;;;;;2068615;28;20076;-76
2024/01/30 05:36:04;;;;;;;53.10;12.02;;;;;;;;;;2071583;28;20022;-75
2024/01/30 05:37:23;;;;;;;37.00;11.52;;;;;;;;;;2072313;28;20026;-76
2024/01/30 05:38:43;;;;;;;54.92;12.90;;;;;;;;;;2069887;28;20034;-77
2024/01/30 05:40:05;;;;;;;38.45;11.63;;;;;;;;;;2064908;28;20501;-76
2024/01/30 05:41:24;;;;;;;33.15;11.25;;;;;;;;;;2073349;28;20030;-80
2024/01/30 05:42:44;;;;;;;38.90;12.60;;;;;;;;;;2075095;28;20029;-77
2024/01/30 05:44:03;;;;;;;31.75;12.00;;;;;;;;;;2063595;28;20153;-75
2024/01/30 05:45:23;;;;;;;29.25;11.68;;;;;;;;;;2064133;28;20112;-76
2024/01/30 05:46:42;;;;;;;22.58;10.68;;;;;;;;;;2058630;28;20038;-75
2024/01/30 05:48:01;;;;;;;24.35;11.60;;;;;;;;;;2066205;28;20089;-77
2024/01/30 05:49:19;;;;;;;19.75;11.23;;;;;;;;;;2069219;28;20038;-75
2024/01/30 05:50:38;;;;;;;20.85;10.30;;;;;;;;;;2074560;28;20038;-78
2024/01/30 05:51:57;;;;;;;17.05;10.63;;;;;;;;;;2066756;28;20043;-76
2024/01/30 05:53:16;;;;;;;22.27;12.23;;;;;;;;;;2072000;28;20037;-77
2024/01/30 05:54:35;;;;;;;20.08;11.13;;;;;;;;;;2062428;28;20030;-76
2024/01/30 05:55:54;;;;;;;18.30;11.32;;;;;;;;;;2069833;28;20029;-77
2024/01/30 05:57:13;;;;;;;18.60;10.55;;;;;;;;;;2071855;28;20029;-77
2024/01/30 05:58:32;;;;;;;20.30;11.48;;;;;;;;;;2072199;28;20126;-75
2024/01/30 05:59:52;;;;;;;21.20;10.98;;;;;;;;;;2074458;28;20025;-75
2024/01/30 06:01:11;;;;;;;21.38;11.35;;;;;;;;;;2073307;28;20412;-75
2024/01/30 06:02:29;;;;;;;20.15;10.68;;;;;;;;;;2063593;28;20073;-75
2024/01/30 06:03:48;;;;;;;20.83;11.38;;;;;;;;;;2072290;28;20034;-76
2024/01/30 06:05:08;;;;;;;23.75;11.55;;;;;;;;;;2071414;28;20026;-75
2024/01/30 06:06:28;;;;;;;21.77;11.20;;;;;;;;;;2071661;28;20034;-74
2024/01/30 06:07:47;;;;;;;20.33;11.43;;;;;;;;;;2065301;28;20058;-74
2024/01/30 06:09:08;;;;;;;18.50;10.85;;;;;;;;;;2056392;28;20406;-75
2024/01/30 06:10:27;;;;;;;20.63;10.68;;;;;;;;;;2068758;28;20520;-74
2024/01/30 06:11:46;;;;;;;19.75;10.90;;;;;;;;;;2065006;28;20065;-74
2024/01/30 06:13:05;;;;;;;19.67;11.20;;;;;;;;;;2069154;28;20026;-74
2024/01/30 06:14:24;;;;;;;20.00;11.15;;;;;;;;;;2072059;28;20129;-73
2024/01/30 06:15:43;;;;;;;19.98;10.75;;;;;;;;;;2071328;28;20484;-74
2024/01/30 06:17:02;;;;;;;22.88;10.82;;;;;;;;;;2069803;28;20549;-77
2024/01/30 06:18:21;;;;;;;17.50;9.63;;;;;;;;;;2063244;28;20546;-75
2024/01/30 06:19:42;;;;;;;19.27;10.45;;;;;;;;;;2071171;28;20088;-74
2024/01/30 06:21:01;;;;;;;19.00;10.55;;;;;;;;;;2071469;28;20037;-74
2024/01/30 06:22:20;;;;;;;18.65;10.43;;;;;;;;;;2071857;28;20030;-73
2024/01/30 06:23:39;;;;;;;22.00;10.82;;;;;;;;;;2062831;28;20034;-73
2024/01/30 06:24:57;;;;;;;21.67;11.50;;;;;;;;;;2068772;28;20392;-76
2024/01/30 06:26:16;;;;;;;19.17;10.57;;;;;;;;;;2065786;28;20041;-75
2024/01/30 06:27:36;;;;;;;18.90;9.55;;;;;;;;;;2072251;28;20025;-74
2024/01/30 06:28:54;;;;;;;21.73;10.48;;;;;;;;;;2071280;28;20026;-75
2024/01/30 06:30:14;;;;;;;18.27;10.23;;;;;;;;;;2071741;28;20033;-75
2024/01/30 06:31:33;;;;;;;18.42;10.20;;;;;;;;;;2072903;28;20026;-74
2024/01/30 06:32:52;;;;;;;17.27;9.80;;;;;;;;;;2061566;28;20062;-74
2024/01/30 06:34:11;;;;;;;17.02;10.00;;;;;;;;;;2059819;28;20030;-75
2024/01/30 06:35:31;;;;;;;19.02;10.20;;;;;;;;;;2071035;28;20022;-75
2024/01/30 06:36:50;;;;;;;19.10;10.20;;;;;;;;;;2074802;28;20034;-74
2024/01/30 06:38:10;;;;;;;17.95;10.40;;;;;;;;;;2063856;28;20034;-74
2024/01/30 06:39:29;;;;;;;19.77;10.18;;;;;;;;;;2059937;28;20500;-75
2024/01/30 06:40:48;;;;;;;15.65;9.50;;;;;;;;;;2055978;28;20023;-75
2024/01/30 06:42:07;;;;;;;16.58;9.63;;;;;;;;;;2067386;28;21258;-75
2024/01/30 06:43:26;;;;;;;21.75;10.75;;;;;;;;;;2072483;28;20045;-75
2024/01/30 06:44:45;;;;;;;17.33;10.50;;;;;;;;;;2071955;28;20038;-76
2024/01/30 06:46:04;;;;;;;16.02;9.63;;;;;;;;;;2072616;28;20041;-75
2024/01/30 06:47:23;;;;;;;19.73;10.52;;;;;;;;;;2075567;28;20152;-76
2024/01/30 06:48:44;;;;;;;21.88;11.25;;;;;;;;;;2069989;28;20113;-76
2024/01/30 06:50:03;;;;;;;16.50;10.05;;;;;;;;;;2071869;28;20962;-76
2024/01/30 06:51:22;;;;;;;22.17;11.10;;;;;;;;;;2070210;28;20022;-77
2024/01/30 06:52:41;;;;;;;22.02;11.13;;;;;;;;;;2062892;28;20489;-77
2024/01/30 06:54:00;;;;;;;18.35;10.27;;;;;;;;;;2070291;28;20034;-77
2024/01/30 06:55:20;;;;;;;21.42;10.70;;;;;;;;;;2073492;28;20034;-77
2024/01/30 06:56:39;;;;;;;21.95;11.15;;;;;;;;;;2069874;28;20026;-77
2024/01/30 06:57:58;;;;;;;19.90;11.07;;;;;;;;;;2067469;28;20137;-77
2024/01/30 06:59:17;;;;;;;25.55;11.75;;;;;;;;;;2070701;28;20034;-77
2024/01/30 07:00:36;;;;;;;22.35;10.85;;;;;;;;;;2068241;28;20026;-77
2024/01/30 07:01:55;;;;;;;20.30;10.63;;;;;;;;;;2070834;28;20030;-77
2024/01/30 07:03:14;;;;;;;24.15;11.52;;;;;;;;;;2064567;28;20034;-77
2024/01/30 07:04:33;;;;;;;22.25;12.07;;;;;;;;;;2068840;28;20108;-77
2024/01/30 07:05:54;;;;;;;20.70;11.52;;;;;;;;;;2069620;28;20034;-77
2024/01/30 07:07:14;;;;;;;23.35;11.88;;;;;;;;;;2071800;28;20079;-77
2024/01/30 07:08:33;;;;;;;25.67;12.25;;;;;;;;;;2072829;28;20038;-77
2024/01/30 07:09:56;;;;;;;22.52;10.82;;;;;;;;;;2073734;28;20400;-77
2024/01/30 07:11:19;;;;;;;28.08;11.48;;;;;;;;;;2075184;28;20029;-77
2024/01/30 07:12:39;;;;;;;25.10;11.88;;;;;;;;;;2072737;28;20211;-77
2024/01/30 07:13:57;;;;;;;22.98;11.35;;;;;;;;;;2071204;28;20034;-77
2024/01/30 07:15:19;;;;;;;25.67;12.63;;;;;;;;;;2071134;28;20488;-78
2024/01/30 07:16:38;;;;;;;32.47;13.73;;;;;;;;;;2062079;28;20568;-77
2024/01/30 07:17:58;;;;;;;26.35;12.52;;;;;;;;;;2068272;28;20114;-77
2024/01/30 07:19:17;;;;;;;28.98;13.05;;;;;;;;;;2074563;28;20489;-77
2024/01/30 07:20:37;;;;;;;23.63;12.15;;;;;;;;;;2073031;28;20053;-77
2024/01/30 07:21:56;;;;;;;24.08;11.57;;;;;;;;;;2071805;28;20464;-77
2024/01/30 07:23:17;;;;;;;26.90;13.10;;;;;;;;;;2063220;28;20069;-77
2024/01/30 07:24:36;;;;;;;32.63;13.02;;;;;;;;;;2068503;28;20637;-77
2024/01/30 07:25:56;;;;;;;25.40;12.95;;;;;;;;;;2073503;28;20130;-76
2024/01/30 07:27:17;;;;;;;25.00;11.63;;;;;;;;;;2073549;28;20026;-78
2024/01/30 07:28:36;;;;;;;28.83;14.23;;;;;;;;;;2074390;28;20496;-76
2024/01/30 07:29:55;;;;;;;30.67;12.55;;;;;;;;;;2072513;28;20064;-76
2024/01/30 07:31:14;;;;;;;25.38;12.75;;;;;;;;;;2063583;28;20034;-77
2024/01/30 07:32:33;;;;;;;34.15;13.93;;;;;;;;;;2069233;28;20463;-77
2024/01/30 07:33:53;;;;;;;34.22;14.25;;;;;;;;;;2071507;28;20117;-77
2024/01/30 07:35:12;;;;;;;30.58;11.77;;;;;;;;;;2074107;28;20034;-77
2024/01/30 07:36:31;;;;;;;28.85;12.88;;;;;;;;;;2076786;28;20026;-77
2024/01/30 07:37:50;;;;;;;28.90;13.40;;;;;;;;;;2074837;28;20034;-77
2024/01/30 07:39:10;;;;;;;28.50;13.40;;;;;;;;;;2063540;28;20027;-77